sensor_id;sensor_type;location;lat;lon;timestamp;P1;durP1;ratioP1;P2;durP2;ratioP2
13267;SDS011;6702;47.068;15.458;2022-10-16T00:01:19;45.93;;;40.00;;
13267;SDS011;6702;47.068;15.458;2022-10-16T00:04:24;45.40;;;38.43;;
13267;SDS011;6702;47.068;15.458;2022-10-16T00:07:27;49.87;;;39.00;;
13267;SDS011;6702;47.068;15.458;2022-10-16T00:10:30;49.30;;;40.77;;
13267;SDS011;6702;47.068;15.458;2022-10-16T00:13:34;52.67;;;39.73;;
13267;SDS011;6702;47.068;15.458;2022-10-16T00:16:40;46.10;;;38.67;;
13267;SDS011;6702;47.068;15.458;2022-10-16T00:19:44;45.90;;;37.83;;
13267;SDS011;6702;47.068;15.458;2022-10-16T00:22:47;44.73;;;38.60;;
13267;SDS011;6702;47.068;15.458;2022-10-16T00:25:56;48.07;;;38.57;;
13267;SDS011;6702;47.068;15.458;2022-10-16T00:29:00;45.73;;;37.67;;
13267;SDS011;6702;47.068;15.458;2022-10-16T00:32:05;47.40;;;37.17;;
13267;SDS011;6702;47.068;15.458;2022-10-16T00:35:09;48.67;;;38.30;;
13267;SDS011;6702;47.068;15.458;2022-10-16T00:38:12;46.03;;;36.83;;
13267;SDS011;6702;47.068;15.458;2022-10-16T00:41:16;42.27;;;34.10;;
13267;SDS011;6702;47.068;15.458;2022-10-16T00:47:48;45.53;;;36.73;;
13267;SDS011;6702;47.068;15.458;2022-10-16T00:50:54;58.43;;;44.03;;
13267;SDS011;6702;47.068;15.458;2022-10-16T00:53:58;49.90;;;42.07;;
13267;SDS011;6702;47.068;15.458;2022-10-16T00:57:03;44.43;;;37.13;;
13267;SDS011;6702;47.068;15.458;2022-10-16T01:00:09;44.53;;;37.30;;
13267;SDS011;6702;47.068;15.458;2022-10-16T01:03:23;45.53;;;36.90;;
13267;SDS011;6702;47.068;15.458;2022-10-16T01:06:31;45.20;;;37.73;;
13267;SDS011;6702;47.068;15.458;2022-10-16T01:09:45;41.77;;;34.40;;
13267;SDS011;6702;47.068;15.458;2022-10-16T01:12:57;44.13;;;37.30;;
13267;SDS011;6702;47.068;15.458;2022-10-16T01:16:04;44.23;;;35.80;;
13267;SDS011;6702;47.068;15.458;2022-10-16T01:19:14;42.47;;;36.57;;
13267;SDS011;6702;47.068;15.458;2022-10-16T01:22:22;45.37;;;38.10;;
13267;SDS011;6702;47.068;15.458;2022-10-16T01:25:37;47.53;;;38.97;;
13267;SDS011;6702;47.068;15.458;2022-10-16T01:28:54;43.00;;;37.50;;
13267;SDS011;6702;47.068;15.458;2022-10-16T01:32:00;41.13;;;35.10;;
13267;SDS011;6702;47.068;15.458;2022-10-16T01:35:11;42.10;;;37.50;;
13267;SDS011;6702;47.068;15.458;2022-10-16T01:38:23;40.67;;;34.53;;
13267;SDS011;6702;47.068;15.458;2022-10-16T01:41:33;42.10;;;35.20;;
13267;SDS011;6702;47.068;15.458;2022-10-16T01:44:40;42.53;;;34.30;;
13267;SDS011;6702;47.068;15.458;2022-10-16T01:47:45;44.00;;;33.97;;
13267;SDS011;6702;47.068;15.458;2022-10-16T01:50:52;45.37;;;36.03;;
13267;SDS011;6702;47.068;15.458;2022-10-16T01:53:59;47.50;;;34.50;;
13267;SDS011;6702;47.068;15.458;2022-10-16T01:57:04;40.00;;;32.50;;
13267;SDS011;6702;47.068;15.458;2022-10-16T02:00:12;41.07;;;33.60;;
13267;SDS011;6702;47.068;15.458;2022-10-16T02:03:18;48.20;;;36.73;;
13267;SDS011;6702;47.068;15.458;2022-10-16T02:06:22;40.90;;;34.63;;
13267;SDS011;6702;47.068;15.458;2022-10-16T02:09:27;40.77;;;33.87;;
13267;SDS011;6702;47.068;15.458;2022-10-16T02:12:32;42.60;;;33.47;;
13267;SDS011;6702;47.068;15.458;2022-10-16T02:15:38;38.70;;;33.37;;
13267;SDS011;6702;47.068;15.458;2022-10-16T02:18:42;40.87;;;33.67;;
13267;SDS011;6702;47.068;15.458;2022-10-16T02:21:47;49.80;;;37.00;;
13267;SDS011;6702;47.068;15.458;2022-10-16T02:24:54;46.40;;;35.47;;
13267;SDS011;6702;47.068;15.458;2022-10-16T02:28:02;42.30;;;33.50;;
13267;SDS011;6702;47.068;15.458;2022-10-16T02:31:11;44.40;;;34.13;;
13267;SDS011;6702;47.068;15.458;2022-10-16T02:34:18;41.93;;;34.30;;
13267;SDS011;6702;47.068;15.458;2022-10-16T02:37:24;42.27;;;33.87;;
13267;SDS011;6702;47.068;15.458;2022-10-16T02:40:29;44.47;;;35.20;;
13267;SDS011;6702;47.068;15.458;2022-10-16T02:43:33;44.27;;;35.30;;
13267;SDS011;6702;47.068;15.458;2022-10-16T02:46:38;38.77;;;33.90;;
13267;SDS011;6702;47.068;15.458;2022-10-16T02:49:41;41.33;;;36.73;;
13267;SDS011;6702;47.068;15.458;2022-10-16T02:52:44;43.03;;;34.57;;
13267;SDS011;6702;47.068;15.458;2022-10-16T02:55:47;42.47;;;33.40;;
13267;SDS011;6702;47.068;15.458;2022-10-16T02:58:51;41.37;;;34.67;;
13267;SDS011;6702;47.068;15.458;2022-10-16T03:01:55;44.20;;;36.20;;
13267;SDS011;6702;47.068;15.458;2022-10-16T03:04:59;40.43;;;34.93;;
13267;SDS011;6702;47.068;15.458;2022-10-16T03:08:02;43.43;;;35.77;;
13267;SDS011;6702;47.068;15.458;2022-10-16T03:11:08;37.77;;;33.37;;
13267;SDS011;6702;47.068;15.458;2022-10-16T03:14:12;41.67;;;35.20;;
13267;SDS011;6702;47.068;15.458;2022-10-16T03:17:16;41.43;;;34.67;;
13267;SDS011;6702;47.068;15.458;2022-10-16T03:20:20;45.33;;;35.30;;
13267;SDS011;6702;47.068;15.458;2022-10-16T03:23:23;39.80;;;34.00;;
13267;SDS011;6702;47.068;15.458;2022-10-16T03:26:26;40.70;;;34.10;;
13267;SDS011;6702;47.068;15.458;2022-10-16T03:29:29;37.77;;;33.67;;
13267;SDS011;6702;47.068;15.458;2022-10-16T03:32:35;38.17;;;34.00;;
13267;SDS011;6702;47.068;15.458;2022-10-16T03:35:38;39.50;;;34.53;;
13267;SDS011;6702;47.068;15.458;2022-10-16T03:38:41;44.00;;;35.90;;
13267;SDS011;6702;47.068;15.458;2022-10-16T03:41:45;43.40;;;36.27;;
13267;SDS011;6702;47.068;15.458;2022-10-16T03:44:48;40.10;;;34.63;;
13267;SDS011;6702;47.068;15.458;2022-10-16T03:47:53;40.77;;;35.97;;
13267;SDS011;6702;47.068;15.458;2022-10-16T03:50:56;39.33;;;35.07;;
13267;SDS011;6702;47.068;15.458;2022-10-16T03:53:59;43.47;;;33.40;;
13267;SDS011;6702;47.068;15.458;2022-10-16T03:57:02;40.60;;;34.30;;
13267;SDS011;6702;47.068;15.458;2022-10-16T04:00:06;42.37;;;34.70;;
13267;SDS011;6702;47.068;15.458;2022-10-16T04:03:11;39.73;;;33.10;;
13267;SDS011;6702;47.068;15.458;2022-10-16T04:06:15;38.30;;;33.17;;
13267;SDS011;6702;47.068;15.458;2022-10-16T04:09:18;39.27;;;33.70;;
13267;SDS011;6702;47.068;15.458;2022-10-16T04:12:21;42.37;;;34.27;;
13267;SDS011;6702;47.068;15.458;2022-10-16T04:15:24;41.60;;;35.07;;
13267;SDS011;6702;47.068;15.458;2022-10-16T04:18:29;40.83;;;34.13;;
13267;SDS011;6702;47.068;15.458;2022-10-16T04:21:33;44.43;;;36.33;;
13267;SDS011;6702;47.068;15.458;2022-10-16T04:24:36;39.97;;;33.70;;
13267;SDS011;6702;47.068;15.458;2022-10-16T04:27:39;42.20;;;35.13;;
13267;SDS011;6702;47.068;15.458;2022-10-16T04:30:46;38.37;;;33.40;;
13267;SDS011;6702;47.068;15.458;2022-10-16T04:33:51;44.53;;;35.30;;
13267;SDS011;6702;47.068;15.458;2022-10-16T04:36:54;45.77;;;36.43;;
13267;SDS011;6702;47.068;15.458;2022-10-16T04:39:57;39.17;;;32.87;;
13267;SDS011;6702;47.068;15.458;2022-10-16T04:43:01;38.70;;;34.50;;
13267;SDS011;6702;47.068;15.458;2022-10-16T04:46:04;42.67;;;34.90;;
13267;SDS011;6702;47.068;15.458;2022-10-16T04:49:09;43.93;;;33.90;;
13267;SDS011;6702;47.068;15.458;2022-10-16T04:52:12;42.40;;;34.47;;
13267;SDS011;6702;47.068;15.458;2022-10-16T04:55:15;42.13;;;34.80;;
13267;SDS011;6702;47.068;15.458;2022-10-16T04:58:19;40.80;;;32.97;;
13267;SDS011;6702;47.068;15.458;2022-10-16T05:01:22;38.93;;;32.40;;
13267;SDS011;6702;47.068;15.458;2022-10-16T05:04:27;42.33;;;36.47;;
13267;SDS011;6702;47.068;15.458;2022-10-16T05:07:30;42.97;;;35.60;;
13267;SDS011;6702;47.068;15.458;2022-10-16T05:10:33;44.33;;;37.73;;
13267;SDS011;6702;47.068;15.458;2022-10-16T05:13:37;42.90;;;37.20;;
13267;SDS011;6702;47.068;15.458;2022-10-16T05:16:40;55.40;;;39.97;;
13267;SDS011;6702;47.068;15.458;2022-10-16T05:19:44;47.50;;;39.90;;
13267;SDS011;6702;47.068;15.458;2022-10-16T05:22:48;47.20;;;38.97;;
13267;SDS011;6702;47.068;15.458;2022-10-16T05:25:52;46.00;;;40.97;;
13267;SDS011;6702;47.068;15.458;2022-10-16T05:28:56;40.83;;;36.37;;
13267;SDS011;6702;47.068;15.458;2022-10-16T05:32:00;52.87;;;39.47;;
13267;SDS011;6702;47.068;15.458;2022-10-16T05:35:05;48.37;;;39.20;;
13267;SDS011;6702;47.068;15.458;2022-10-16T05:38:13;44.60;;;37.57;;
13267;SDS011;6702;47.068;15.458;2022-10-16T05:41:16;49.27;;;39.60;;
13267;SDS011;6702;47.068;15.458;2022-10-16T05:44:22;39.60;;;35.27;;
13267;SDS011;6702;47.068;15.458;2022-10-16T05:47:26;50.43;;;35.70;;
13267;SDS011;6702;47.068;15.458;2022-10-16T05:50:31;41.00;;;36.47;;
13267;SDS011;6702;47.068;15.458;2022-10-16T05:53:35;46.27;;;35.43;;
13267;SDS011;6702;47.068;15.458;2022-10-16T05:56:40;41.07;;;35.70;;
13267;SDS011;6702;47.068;15.458;2022-10-16T05:59:43;36.70;;;31.83;;
13267;SDS011;6702;47.068;15.458;2022-10-16T06:02:47;44.50;;;34.33;;
13267;SDS011;6702;47.068;15.458;2022-10-16T06:05:51;38.50;;;34.30;;
13267;SDS011;6702;47.068;15.458;2022-10-16T06:08:55;53.60;;;34.00;;
13267;SDS011;6702;47.068;15.458;2022-10-16T06:12:01;36.67;;;32.60;;
13267;SDS011;6702;47.068;15.458;2022-10-16T06:15:04;38.83;;;34.67;;
13267;SDS011;6702;47.068;15.458;2022-10-16T06:18:08;40.30;;;33.57;;
13267;SDS011;6702;47.068;15.458;2022-10-16T06:21:14;40.20;;;34.50;;
13267;SDS011;6702;47.068;15.458;2022-10-16T06:24:19;45.60;;;35.50;;
13267;SDS011;6702;47.068;15.458;2022-10-16T06:27:23;38.40;;;34.30;;
13267;SDS011;6702;47.068;15.458;2022-10-16T06:30:26;39.63;;;33.77;;
13267;SDS011;6702;47.068;15.458;2022-10-16T06:33:30;37.13;;;32.67;;
13267;SDS011;6702;47.068;15.458;2022-10-16T06:36:35;36.93;;;33.03;;
13267;SDS011;6702;47.068;15.458;2022-10-16T06:39:39;37.43;;;32.37;;
13267;SDS011;6702;47.068;15.458;2022-10-16T06:42:42;35.87;;;31.07;;
13267;SDS011;6702;47.068;15.458;2022-10-16T06:45:49;36.53;;;32.70;;
13267;SDS011;6702;47.068;15.458;2022-10-16T06:48:54;34.47;;;30.87;;
13267;SDS011;6702;47.068;15.458;2022-10-16T06:51:58;36.43;;;32.60;;
13267;SDS011;6702;47.068;15.458;2022-10-16T06:55:03;38.30;;;34.30;;
13267;SDS011;6702;47.068;15.458;2022-10-16T06:58:07;35.40;;;31.50;;
13267;SDS011;6702;47.068;15.458;2022-10-16T07:01:11;36.53;;;32.73;;
13267;SDS011;6702;47.068;15.458;2022-10-16T07:04:15;35.20;;;31.57;;
13267;SDS011;6702;47.068;15.458;2022-10-16T07:07:20;33.50;;;30.00;;
13267;SDS011;6702;47.068;15.458;2022-10-16T07:10:26;35.80;;;31.23;;
13267;SDS011;6702;47.068;15.458;2022-10-16T07:13:29;35.70;;;31.30;;
13267;SDS011;6702;47.068;15.458;2022-10-16T07:16:35;34.33;;;30.63;;
13267;SDS011;6702;47.068;15.458;2022-10-16T07:19:38;34.90;;;31.00;;
13267;SDS011;6702;47.068;15.458;2022-10-16T07:22:43;34.50;;;30.90;;
13267;SDS011;6702;47.068;15.458;2022-10-16T07:25:52;34.63;;;31.03;;
13267;SDS011;6702;47.068;15.458;2022-10-16T07:28:56;34.30;;;30.60;;
13267;SDS011;6702;47.068;15.458;2022-10-16T07:32:01;32.63;;;29.20;;
13267;SDS011;6702;47.068;15.458;2022-10-16T07:35:05;34.53;;;29.40;;
13267;SDS011;6702;47.068;15.458;2022-10-16T07:38:10;33.93;;;30.20;;
13267;SDS011;6702;47.068;15.458;2022-10-16T07:41:15;37.10;;;32.40;;
13267;SDS011;6702;47.068;15.458;2022-10-16T07:44:19;34.33;;;30.63;;
13267;SDS011;6702;47.068;15.458;2022-10-16T07:47:23;34.07;;;30.70;;
13267;SDS011;6702;47.068;15.458;2022-10-16T07:50:26;32.33;;;29.03;;
13267;SDS011;6702;47.068;15.458;2022-10-16T07:53:31;33.50;;;30.20;;
13267;SDS011;6702;47.068;15.458;2022-10-16T07:56:35;34.70;;;31.00;;
13267;SDS011;6702;47.068;15.458;2022-10-16T07:59:44;32.40;;;28.47;;
13267;SDS011;6702;47.068;15.458;2022-10-16T08:02:47;32.50;;;29.10;;
13267;SDS011;6702;47.068;15.458;2022-10-16T08:05:50;30.33;;;27.37;;
13267;SDS011;6702;47.068;15.458;2022-10-16T08:08:55;28.93;;;26.23;;
13267;SDS011;6702;47.068;15.458;2022-10-16T08:12:01;26.07;;;23.43;;
13267;SDS011;6702;47.068;15.458;2022-10-16T08:15:06;28.70;;;26.23;;
13267;SDS011;6702;47.068;15.458;2022-10-16T08:18:10;28.53;;;26.13;;
13267;SDS011;6702;47.068;15.458;2022-10-16T08:21:15;28.63;;;26.13;;
13267;SDS011;6702;47.068;15.458;2022-10-16T08:24:23;28.83;;;26.53;;
13267;SDS011;6702;47.068;15.458;2022-10-16T08:27:30;29.85;;;27.33;;
13267;SDS011;6702;47.068;15.458;2022-10-16T08:30:33;28.20;;;26.10;;
13267;SDS011;6702;47.068;15.458;2022-10-16T08:33:37;27.25;;;25.25;;
13267;SDS011;6702;47.068;15.458;2022-10-16T08:36:41;28.52;;;26.63;;
13267;SDS011;6702;47.068;15.458;2022-10-16T08:39:46;27.77;;;25.67;;
13267;SDS011;6702;47.068;15.458;2022-10-16T08:42:59;27.25;;;25.33;;
13267;SDS011;6702;47.068;15.458;2022-10-16T08:46:21;27.23;;;25.33;;
13267;SDS011;6702;47.068;15.458;2022-10-16T08:49:33;27.25;;;25.35;;
13267;SDS011;6702;47.068;15.458;2022-10-16T08:52:39;27.05;;;25.15;;
13267;SDS011;6702;47.068;15.458;2022-10-16T08:55:46;27.13;;;25.33;;
13267;SDS011;6702;47.068;15.458;2022-10-16T08:58:53;26.95;;;25.25;;
13267;SDS011;6702;47.068;15.458;2022-10-16T09:02:02;28.27;;;26.30;;
13267;SDS011;6702;47.068;15.458;2022-10-16T09:05:38;26.92;;;25.00;;
13267;SDS011;6702;47.068;15.458;2022-10-16T09:09:04;31.73;;;29.48;;
13267;SDS011;6702;47.068;15.458;2022-10-16T09:12:18;26.05;;;24.38;;
13267;SDS011;6702;47.068;15.458;2022-10-16T09:15:28;27.55;;;25.65;;
13267;SDS011;6702;47.068;15.458;2022-10-16T09:18:39;26.27;;;24.48;;
13267;SDS011;6702;47.068;15.458;2022-10-16T09:21:45;27.15;;;25.25;;
13267;SDS011;6702;47.068;15.458;2022-10-16T09:24:49;25.73;;;23.95;;
13267;SDS011;6702;47.068;15.458;2022-10-16T09:27:53;23.88;;;22.35;;
13267;SDS011;6702;47.068;15.458;2022-10-16T09:30:57;26.30;;;24.50;;
13267;SDS011;6702;47.068;15.458;2022-10-16T09:34:01;26.48;;;24.67;;
13267;SDS011;6702;47.068;15.458;2022-10-16T09:37:08;25.20;;;23.50;;
13267;SDS011;6702;47.068;15.458;2022-10-16T09:40:24;25.27;;;23.67;;
13267;SDS011;6702;47.068;15.458;2022-10-16T09:43:31;24.40;;;22.50;;
13267;SDS011;6702;47.068;15.458;2022-10-16T09:46:38;24.88;;;22.95;;
13267;SDS011;6702;47.068;15.458;2022-10-16T09:49:49;25.33;;;23.63;;
13267;SDS011;6702;47.068;15.458;2022-10-16T09:53:04;25.63;;;23.83;;
13267;SDS011;6702;47.068;15.458;2022-10-16T09:56:09;24.27;;;22.58;;
13267;SDS011;6702;47.068;15.458;2022-10-16T09:59:17;26.30;;;24.27;;
13267;SDS011;6702;47.068;15.458;2022-10-16T10:02:24;24.27;;;22.52;;
13267;SDS011;6702;47.068;15.458;2022-10-16T10:05:31;24.52;;;22.80;;
13267;SDS011;6702;47.068;15.458;2022-10-16T10:08:35;24.83;;;23.27;;
13267;SDS011;6702;47.068;15.458;2022-10-16T10:11:39;22.25;;;20.80;;
13267;SDS011;6702;47.068;15.458;2022-10-16T10:14:46;23.48;;;21.85;;
13267;SDS011;6702;47.068;15.458;2022-10-16T10:17:51;23.52;;;21.63;;
13267;SDS011;6702;47.068;15.458;2022-10-16T10:20:58;22.05;;;20.60;;
13267;SDS011;6702;47.068;15.458;2022-10-16T10:24:09;21.08;;;19.58;;
13267;SDS011;6702;47.068;15.458;2022-10-16T10:27:14;22.52;;;21.02;;
13267;SDS011;6702;47.068;15.458;2022-10-16T10:30:23;22.20;;;20.77;;
13267;SDS011;6702;47.068;15.458;2022-10-16T10:33:31;22.30;;;20.80;;
13267;SDS011;6702;47.068;15.458;2022-10-16T10:36:41;20.90;;;19.50;;
13267;SDS011;6702;47.068;15.458;2022-10-16T10:39:47;20.50;;;19.17;;
13267;SDS011;6702;47.068;15.458;2022-10-16T10:42:59;20.90;;;19.50;;
13267;SDS011;6702;47.068;15.458;2022-10-16T10:46:09;22.33;;;20.80;;
13267;SDS011;6702;47.068;15.458;2022-10-16T10:49:28;22.30;;;20.80;;
13267;SDS011;6702;47.068;15.458;2022-10-16T10:52:49;19.75;;;18.35;;
13267;SDS011;6702;47.068;15.458;2022-10-16T10:56:00;20.52;;;19.13;;
13267;SDS011;6702;47.068;15.458;2022-10-16T10:59:19;21.08;;;19.77;;
13267;SDS011;6702;47.068;15.458;2022-10-16T11:02:42;20.58;;;19.27;;
13267;SDS011;6702;47.068;15.458;2022-10-16T11:05:51;20.90;;;19.58;;
13267;SDS011;6702;47.068;15.458;2022-10-16T11:09:00;20.83;;;18.88;;
13267;SDS011;6702;47.068;15.458;2022-10-16T11:12:10;21.00;;;19.48;;
13267;SDS011;6702;47.068;15.458;2022-10-16T11:15:18;20.70;;;19.23;;
13267;SDS011;6702;47.068;15.458;2022-10-16T11:18:30;21.23;;;19.55;;
13267;SDS011;6702;47.068;15.458;2022-10-16T11:21:42;21.83;;;20.13;;
13267;SDS011;6702;47.068;15.458;2022-10-16T11:24:52;19.35;;;17.73;;
13267;SDS011;6702;47.068;15.458;2022-10-16T11:28:02;20.95;;;19.45;;
13267;SDS011;6702;47.068;15.458;2022-10-16T11:31:11;19.15;;;17.63;;
13267;SDS011;6702;47.068;15.458;2022-10-16T11:34:23;17.25;;;16.05;;
13267;SDS011;6702;47.068;15.458;2022-10-16T11:37:36;19.13;;;17.73;;
13267;SDS011;6702;47.068;15.458;2022-10-16T11:40:45;17.85;;;16.65;;
13267;SDS011;6702;47.068;15.458;2022-10-16T11:43:55;17.35;;;16.02;;
13267;SDS011;6702;47.068;15.458;2022-10-16T11:47:11;17.58;;;16.40;;
13267;SDS011;6702;47.068;15.458;2022-10-16T11:50:43;17.75;;;16.45;;
13267;SDS011;6702;47.068;15.458;2022-10-16T11:53:53;18.98;;;17.20;;
13267;SDS011;6702;47.068;15.458;2022-10-16T11:57:02;18.75;;;17.30;;
13267;SDS011;6702;47.068;15.458;2022-10-16T12:00:17;17.95;;;16.55;;
13267;SDS011;6702;47.068;15.458;2022-10-16T12:03:26;17.38;;;15.75;;
13267;SDS011;6702;47.068;15.458;2022-10-16T12:06:35;17.42;;;16.23;;
13267;SDS011;6702;47.068;15.458;2022-10-16T12:09:43;16.75;;;15.65;;
13267;SDS011;6702;47.068;15.458;2022-10-16T12:12:46;16.77;;;15.68;;
13267;SDS011;6702;47.068;15.458;2022-10-16T12:15:49;16.40;;;15.18;;
13267;SDS011;6702;47.068;15.458;2022-10-16T12:19:07;16.13;;;15.02;;
13267;SDS011;6702;47.068;15.458;2022-10-16T12:22:16;15.48;;;14.27;;
13267;SDS011;6702;47.068;15.458;2022-10-16T12:25:22;16.80;;;15.52;;
13267;SDS011;6702;47.068;15.458;2022-10-16T12:28:29;16.48;;;15.30;;
13267;SDS011;6702;47.068;15.458;2022-10-16T12:31:36;16.90;;;15.80;;
13267;SDS011;6702;47.068;15.458;2022-10-16T12:34:58;18.23;;;16.77;;
13267;SDS011;6702;47.068;15.458;2022-10-16T12:38:08;17.25;;;15.88;;
13267;SDS011;6702;47.068;15.458;2022-10-16T12:41:24;18.65;;;17.25;;
13267;SDS011;6702;47.068;15.458;2022-10-16T12:44:31;17.80;;;16.35;;
13267;SDS011;6702;47.068;15.458;2022-10-16T12:47:37;18.38;;;16.95;;
13267;SDS011;6702;47.068;15.458;2022-10-16T12:50:50;17.65;;;16.45;;
13267;SDS011;6702;47.068;15.458;2022-10-16T12:53:59;17.98;;;16.58;;
13267;SDS011;6702;47.068;15.458;2022-10-16T12:57:17;19.10;;;17.50;;
13267;SDS011;6702;47.068;15.458;2022-10-16T13:00:41;18.08;;;16.83;;
13267;SDS011;6702;47.068;15.458;2022-10-16T13:03:55;20.60;;;18.98;;
13267;SDS011;6702;47.068;15.458;2022-10-16T13:07:18;18.52;;;17.23;;
13267;SDS011;6702;47.068;15.458;2022-10-16T13:10:38;18.83;;;17.42;;
13267;SDS011;6702;47.068;15.458;2022-10-16T13:17:15;17.55;;;16.27;;
13267;SDS011;6702;47.068;15.458;2022-10-16T13:20:30;17.23;;;16.02;;
13267;SDS011;6702;47.068;15.458;2022-10-16T13:23:39;16.90;;;15.65;;
13267;SDS011;6702;47.068;15.458;2022-10-16T13:26:52;16.25;;;15.10;;
13267;SDS011;6702;47.068;15.458;2022-10-16T13:30:00;16.38;;;15.00;;
13267;SDS011;6702;47.068;15.458;2022-10-16T13:33:13;15.05;;;13.75;;
13267;SDS011;6702;47.068;15.458;2022-10-16T13:36:19;14.18;;;13.23;;
13267;SDS011;6702;47.068;15.458;2022-10-16T13:39:25;16.65;;;15.18;;
13267;SDS011;6702;47.068;15.458;2022-10-16T13:42:30;17.25;;;15.85;;
13267;SDS011;6702;47.068;15.458;2022-10-16T13:45:34;17.90;;;16.25;;
13267;SDS011;6702;47.068;15.458;2022-10-16T13:48:38;18.25;;;16.67;;
13267;SDS011;6702;47.068;15.458;2022-10-16T13:51:41;18.67;;;17.17;;
13267;SDS011;6702;47.068;15.458;2022-10-16T13:54:57;20.85;;;19.15;;
13267;SDS011;6702;47.068;15.458;2022-10-16T13:58:08;19.17;;;17.50;;
13267;SDS011;6702;47.068;15.458;2022-10-16T14:01:16;18.73;;;17.13;;
13267;SDS011;6702;47.068;15.458;2022-10-16T14:04:21;18.50;;;16.90;;
13267;SDS011;6702;47.068;15.458;2022-10-16T14:07:25;19.07;;;17.30;;
13267;SDS011;6702;47.068;15.458;2022-10-16T14:10:30;20.37;;;18.57;;
13267;SDS011;6702;47.068;15.458;2022-10-16T14:13:38;19.40;;;17.70;;
13267;SDS011;6702;47.068;15.458;2022-10-16T14:16:45;18.73;;;16.93;;
13267;SDS011;6702;47.068;15.458;2022-10-16T14:19:49;18.07;;;16.33;;
13267;SDS011;6702;47.068;15.458;2022-10-16T14:23:02;18.60;;;16.83;;
13267;SDS011;6702;47.068;15.458;2022-10-16T14:26:15;18.33;;;16.60;;
13267;SDS011;6702;47.068;15.458;2022-10-16T14:29:22;20.07;;;18.07;;
13267;SDS011;6702;47.068;15.458;2022-10-16T14:32:27;19.07;;;17.33;;
13267;SDS011;6702;47.068;15.458;2022-10-16T14:35:32;19.70;;;17.70;;
13267;SDS011;6702;47.068;15.458;2022-10-16T14:38:36;19.03;;;17.23;;
13267;SDS011;6702;47.068;15.458;2022-10-16T14:41:43;20.80;;;18.83;;
13267;SDS011;6702;47.068;15.458;2022-10-16T14:44:50;21.57;;;18.40;;
13267;SDS011;6702;47.068;15.458;2022-10-16T14:47:55;19.60;;;17.50;;
13267;SDS011;6702;47.068;15.458;2022-10-16T14:51:00;20.27;;;18.37;;
13267;SDS011;6702;47.068;15.458;2022-10-16T14:54:03;22.70;;;20.60;;
13267;SDS011;6702;47.068;15.458;2022-10-16T14:57:13;20.57;;;18.57;;
13267;SDS011;6702;47.068;15.458;2022-10-16T15:00:22;22.87;;;20.70;;
13267;SDS011;6702;47.068;15.458;2022-10-16T15:03:26;21.30;;;19.10;;
13267;SDS011;6702;47.068;15.458;2022-10-16T15:06:30;22.33;;;20.07;;
13267;SDS011;6702;47.068;15.458;2022-10-16T15:09:33;24.60;;;22.00;;
13267;SDS011;6702;47.068;15.458;2022-10-16T15:12:36;25.73;;;23.23;;
13267;SDS011;6702;47.068;15.458;2022-10-16T15:15:41;24.77;;;22.40;;
13267;SDS011;6702;47.068;15.458;2022-10-16T15:18:46;27.37;;;24.57;;
13267;SDS011;6702;47.068;15.458;2022-10-16T15:21:49;25.43;;;23.03;;
13267;SDS011;6702;47.068;15.458;2022-10-16T15:24:53;26.73;;;24.13;;
13267;SDS011;6702;47.068;15.458;2022-10-16T15:27:57;25.90;;;23.30;;
13267;SDS011;6702;47.068;15.458;2022-10-16T15:31:02;26.77;;;23.07;;
13267;SDS011;6702;47.068;15.458;2022-10-16T15:34:08;27.17;;;24.43;;
13267;SDS011;6702;47.068;15.458;2022-10-16T15:37:11;26.70;;;24.03;;
13267;SDS011;6702;47.068;15.458;2022-10-16T15:40:15;30.23;;;27.03;;
13267;SDS011;6702;47.068;15.458;2022-10-16T15:43:20;29.33;;;26.10;;
13267;SDS011;6702;47.068;15.458;2022-10-16T15:46:24;28.30;;;25.40;;
13267;SDS011;6702;47.068;15.458;2022-10-16T15:49:28;28.80;;;25.80;;
13267;SDS011;6702;47.068;15.458;2022-10-16T15:52:32;28.80;;;25.93;;
13267;SDS011;6702;47.068;15.458;2022-10-16T15:55:35;28.10;;;25.43;;
13267;SDS011;6702;47.068;15.458;2022-10-16T15:58:39;28.03;;;25.23;;
13267;SDS011;6702;47.068;15.458;2022-10-16T16:01:44;28.40;;;25.43;;
13267;SDS011;6702;47.068;15.458;2022-10-16T16:04:48;29.50;;;26.57;;
13267;SDS011;6702;47.068;15.458;2022-10-16T16:07:51;28.37;;;25.53;;
13267;SDS011;6702;47.068;15.458;2022-10-16T16:10:58;30.30;;;27.30;;
13267;SDS011;6702;47.068;15.458;2022-10-16T16:14:01;30.47;;;27.17;;
13267;SDS011;6702;47.068;15.458;2022-10-16T16:17:06;29.87;;;26.80;;
13267;SDS011;6702;47.068;15.458;2022-10-16T16:20:09;30.17;;;26.90;;
13267;SDS011;6702;47.068;15.458;2022-10-16T16:23:14;34.53;;;28.17;;
13267;SDS011;6702;47.068;15.458;2022-10-16T16:26:22;32.63;;;29.40;;
13267;SDS011;6702;47.068;15.458;2022-10-16T16:29:27;33.33;;;29.90;;
13267;SDS011;6702;47.068;15.458;2022-10-16T16:32:32;31.57;;;28.27;;
13267;SDS011;6702;47.068;15.458;2022-10-16T16:35:35;31.50;;;28.20;;
13267;SDS011;6702;47.068;15.458;2022-10-16T16:38:40;33.83;;;28.40;;
13267;SDS011;6702;47.068;15.458;2022-10-16T16:41:43;36.23;;;31.03;;
13267;SDS011;6702;47.068;15.458;2022-10-16T16:44:47;34.63;;;30.97;;
13267;SDS011;6702;47.068;15.458;2022-10-16T16:47:52;31.77;;;28.00;;
13267;SDS011;6702;47.068;15.458;2022-10-16T16:50:56;38.70;;;34.87;;
13267;SDS011;6702;47.068;15.458;2022-10-16T16:53:59;36.33;;;32.57;;
13267;SDS011;6702;47.068;15.458;2022-10-16T16:57:03;33.20;;;29.43;;
13267;SDS011;6702;47.068;15.458;2022-10-16T17:00:07;34.10;;;30.50;;
13267;SDS011;6702;47.068;15.458;2022-10-16T17:03:13;32.60;;;29.27;;
13267;SDS011;6702;47.068;15.458;2022-10-16T17:06:18;33.00;;;29.50;;
13267;SDS011;6702;47.068;15.458;2022-10-16T17:09:23;31.97;;;28.40;;
13267;SDS011;6702;47.068;15.458;2022-10-16T17:12:28;33.93;;;30.27;;
13267;SDS011;6702;47.068;15.458;2022-10-16T17:15:32;34.23;;;30.17;;
13267;SDS011;6702;47.068;15.458;2022-10-16T17:18:38;32.60;;;29.30;;
13267;SDS011;6702;47.068;15.458;2022-10-16T17:21:43;31.73;;;28.43;;
13267;SDS011;6702;47.068;15.458;2022-10-16T17:24:48;30.60;;;27.50;;
13267;SDS011;6702;47.068;15.458;2022-10-16T17:27:54;30.70;;;27.50;;
13267;SDS011;6702;47.068;15.458;2022-10-16T17:31:06;32.00;;;28.73;;
13267;SDS011;6702;47.068;15.458;2022-10-16T17:34:18;33.07;;;29.70;;
13267;SDS011;6702;47.068;15.458;2022-10-16T17:37:23;37.60;;;33.43;;
13267;SDS011;6702;47.068;15.458;2022-10-16T17:40:28;41.90;;;36.30;;
13267;SDS011;6702;47.068;15.458;2022-10-16T17:43:33;35.07;;;31.43;;
13267;SDS011;6702;47.068;15.458;2022-10-16T17:46:39;33.30;;;29.00;;
13267;SDS011;6702;47.068;15.458;2022-10-16T17:49:46;31.70;;;28.30;;
13267;SDS011;6702;47.068;15.458;2022-10-16T17:52:54;32.03;;;28.67;;
13267;SDS011;6702;47.068;15.458;2022-10-16T17:56:01;33.33;;;29.67;;
13267;SDS011;6702;47.068;15.458;2022-10-16T17:59:09;31.80;;;28.50;;
13267;SDS011;6702;47.068;15.458;2022-10-16T18:02:15;33.93;;;29.30;;
13267;SDS011;6702;47.068;15.458;2022-10-16T18:05:21;32.37;;;29.00;;
13267;SDS011;6702;47.068;15.458;2022-10-16T18:08:28;32.90;;;29.37;;
13267;SDS011;6702;47.068;15.458;2022-10-16T18:11:37;32.87;;;29.37;;
13267;SDS011;6702;47.068;15.458;2022-10-16T18:14:43;31.33;;;27.37;;
13267;SDS011;6702;47.068;15.458;2022-10-16T18:17:47;39.40;;;34.30;;